createdAt,value
2022-12-17T00:02:00.381Z,18.22
2022-12-17T00:04:26.579Z,18.22
2022-12-17T00:06:52.801Z,18.21
2022-12-17T00:09:22.960Z,18.21
2022-12-17T00:11:49.154Z,18.22
2022-12-17T00:14:15.422Z,18.19
2022-12-17T00:16:41.710Z,18.21
2022-12-17T00:19:08.032Z,18.21
2022-12-17T00:21:34.299Z,18.19
2022-12-17T00:24:00.547Z,18.19
2022-12-17T00:26:26.988Z,18.20
2022-12-17T00:28:53.301Z,18.19
2022-12-17T00:34:03.647Z,18.18
2022-12-17T00:36:29.943Z,18.19
2022-12-17T00:38:56.156Z,18.18
2022-12-17T00:41:22.937Z,18.18
2022-12-17T00:43:49.143Z,18.17
2022-12-17T00:46:15.355Z,18.16
2022-12-17T00:48:41.568Z,18.15
2022-12-17T00:51:07.945Z,18.14
2022-12-17T00:53:34.503Z,18.13
2022-12-17T00:56:00.933Z,18.13
2022-12-17T00:58:27.221Z,18.13
2022-12-17T01:00:53.531Z,18.14
2022-12-17T01:03:22.591Z,18.14
2022-12-17T01:05:48.792Z,18.14
2022-12-17T01:08:15.001Z,18.16
2022-12-17T01:10:41.198Z,18.17
2022-12-17T01:13:07.422Z,18.17
2022-12-17T01:15:33.645Z,18.18
2022-12-17T01:17:59.974Z,18.19
2022-12-17T01:20:26.185Z,18.18
2022-12-17T01:22:52.512Z,18.19
2022-12-17T01:25:22.598Z,18.20
2022-12-17T01:27:49.075Z,18.19
2022-12-17T01:30:15.366Z,18.17
2022-12-17T01:32:41.640Z,18.21
2022-12-17T01:35:07.945Z,18.20
2022-12-17T01:37:34.176Z,18.23
2022-12-17T01:40:00.353Z,18.23
2022-12-17T01:42:26.640Z,18.24
2022-12-17T01:44:52.926Z,18.26
2022-12-17T01:47:19.121Z,18.25
2022-12-17T01:49:45.302Z,18.24
2022-12-17T01:52:11.573Z,18.25
2022-12-17T01:54:37.751Z,18.23
2022-12-17T01:57:03.950Z,18.22
2022-12-17T01:59:30.269Z,18.22
2022-12-17T02:01:56.711Z,18.21
2022-12-17T02:04:23.049Z,18.20
2022-12-17T02:06:49.221Z,18.18
2022-12-17T02:09:15.425Z,18.20
2022-12-17T02:11:41.714Z,18.17
2022-12-17T02:14:07.914Z,18.16
2022-12-17T02:16:34.135Z,18.13
2022-12-17T02:19:00.477Z,18.12
2022-12-17T02:21:26.673Z,18.13
2022-12-17T02:23:52.861Z,18.11
2022-12-17T02:26:19.047Z,18.10
2022-12-17T02:28:45.340Z,18.08
2022-12-17T02:31:11.885Z,18.07
2022-12-17T02:33:38.455Z,18.09
2022-12-17T02:36:04.731Z,18.08
2022-12-17T02:38:30.977Z,18.09
2022-12-17T02:40:57.195Z,18.07
2022-12-17T02:43:23.357Z,18.06
2022-12-17T02:45:49.634Z,18.05
2022-12-17T02:48:15.948Z,18.04
2022-12-17T02:50:42.396Z,18.03
2022-12-17T02:53:08.598Z,18.02
2022-12-17T02:55:34.765Z,18.04
2022-12-17T02:58:01.289Z,18.05
2022-12-17T03:00:27.471Z,18.04
2022-12-17T03:02:53.813Z,18.05
2022-12-17T03:05:43.904Z,18.05
2022-12-17T03:08:06.289Z,18.08
2022-12-17T03:10:32.463Z,18.08
2022-12-17T03:12:58.681Z,18.09
2022-12-17T03:15:25.004Z,18.09
2022-12-17T03:17:51.162Z,18.11
2022-12-17T03:20:17.349Z,18.09
2022-12-17T03:22:43.619Z,18.09
2022-12-17T03:25:09.827Z,18.10
2022-12-17T03:27:36.074Z,18.11
2022-12-17T03:30:02.631Z,18.09
2022-12-17T03:32:28.869Z,18.08
2022-12-17T03:34:55.045Z,18.08
2022-12-17T03:37:21.283Z,18.10
2022-12-17T03:39:47.472Z,18.10
2022-12-17T03:42:13.663Z,18.11
2022-12-17T03:44:39.853Z,18.10
2022-12-17T03:47:06.136Z,18.09
2022-12-17T03:49:32.307Z,18.08
2022-12-17T03:51:58.509Z,18.09
2022-12-17T03:54:24.956Z,18.10
2022-12-17T03:56:51.143Z,18.11
2022-12-17T03:59:17.522Z,18.14
2022-12-17T04:01:43.871Z,18.12
2022-12-17T04:04:10.189Z,18.11
2022-12-17T04:06:36.423Z,18.08
2022-12-17T04:09:02.655Z,18.03
2022-12-17T04:11:28.839Z,17.94
2022-12-17T04:13:55.082Z,17.86
2022-12-17T04:16:21.278Z,17.78
2022-12-17T04:18:47.444Z,17.74
2022-12-17T04:21:13.662Z,17.73
2022-12-17T04:23:39.855Z,17.71
2022-12-17T04:26:06.076Z,17.73
2022-12-17T04:28:32.245Z,17.76
2022-12-17T04:30:58.575Z,17.79
2022-12-17T04:33:24.777Z,17.81
2022-12-17T04:35:51.018Z,17.85
2022-12-17T04:38:17.447Z,17.87
2022-12-17T04:40:43.623Z,17.92
2022-12-17T04:43:09.949Z,17.96
2022-12-17T04:45:36.128Z,17.98
2022-12-17T04:48:02.307Z,18.03
2022-12-17T04:50:28.524Z,18.03
2022-12-17T04:52:54.738Z,18.04
2022-12-17T04:55:20.937Z,18.05
2022-12-17T04:57:47.130Z,18.05
2022-12-17T05:00:13.324Z,18.05
2022-12-17T05:02:42.693Z,18.02
2022-12-17T05:05:09.249Z,18.03
2022-12-17T05:07:35.490Z,18.05
2022-12-17T05:10:01.698Z,18.05
2022-12-17T05:12:27.939Z,18.03
2022-12-17T05:14:54.211Z,18.02
2022-12-17T05:17:20.424Z,18.01
2022-12-17T05:19:46.720Z,18.00
2022-12-17T05:22:12.998Z,18.03
2022-12-17T05:24:39.210Z,18.04
2022-12-17T05:27:05.434Z,18.03
2022-12-17T05:29:31.612Z,18.03
2022-12-17T05:31:57.801Z,18.02
2022-12-17T05:34:24.093Z,18.01
2022-12-17T05:36:50.285Z,17.99
2022-12-17T05:39:16.487Z,17.96
2022-12-17T05:41:42.897Z,17.94
2022-12-17T05:44:09.129Z,17.93
2022-12-17T05:46:35.345Z,17.92
2022-12-17T05:49:01.887Z,17.91
2022-12-17T05:51:28.067Z,17.91
2022-12-17T05:53:54.305Z,17.89
2022-12-17T05:56:20.492Z,17.89
2022-12-17T05:58:46.690Z,17.87
2022-12-17T06:01:14.040Z,17.88
2022-12-17T06:03:40.916Z,17.87
2022-12-17T06:06:07.506Z,17.83
2022-12-17T06:08:33.832Z,17.80
2022-12-17T06:11:00.031Z,17.79
2022-12-17T06:13:26.300Z,17.80
2022-12-17T06:15:52.608Z,17.79
2022-12-17T06:18:18.891Z,17.77
2022-12-17T06:20:45.097Z,17.75
2022-12-17T06:23:11.298Z,17.73
2022-12-17T06:25:37.475Z,17.72
2022-12-17T06:28:03.680Z,17.69
2022-12-17T06:30:29.866Z,17.66
2022-12-17T06:32:56.091Z,17.64
2022-12-17T06:35:22.282Z,17.66
2022-12-17T06:37:48.517Z,17.63
2022-12-17T06:40:14.708Z,17.62
2022-12-17T06:42:41.101Z,17.61
2022-12-17T06:45:07.304Z,17.60
2022-12-17T06:47:33.516Z,17.59
2022-12-17T06:50:01.676Z,17.60
2022-12-17T06:52:28.089Z,17.61
2022-12-17T06:54:54.301Z,17.61
2022-12-17T06:57:20.500Z,17.62
2022-12-17T06:59:46.771Z,17.63
2022-12-17T07:02:13.182Z,17.63
2022-12-17T07:04:39.460Z,17.63
2022-12-17T07:07:05.629Z,17.63
2022-12-17T07:09:31.873Z,17.64
2022-12-17T07:11:58.135Z,17.65
2022-12-17T07:14:24.398Z,17.63
2022-12-17T07:16:50.657Z,17.62
2022-12-17T07:19:16.917Z,17.61
2022-12-17T07:21:43.551Z,17.60
2022-12-17T07:24:09.722Z,17.58
2022-12-17T07:26:36.005Z,17.57
2022-12-17T07:29:02.301Z,17.57
2022-12-17T07:31:28.640Z,17.56
2022-12-17T07:33:54.887Z,17.56
2022-12-17T07:36:23.470Z,17.57
2022-12-17T07:38:49.762Z,17.56
2022-12-17T07:41:15.936Z,17.59
2022-12-17T07:43:42.171Z,17.58
2022-12-17T07:46:08.420Z,17.61
2022-12-17T07:48:34.613Z,17.61
2022-12-17T07:51:00.914Z,17.58
2022-12-17T07:53:27.195Z,17.55
2022-12-17T07:55:53.473Z,17.50
2022-12-17T07:58:19.655Z,17.43
2022-12-17T08:00:49.317Z,17.39
2022-12-17T08:03:15.835Z,17.39
2022-12-17T08:05:42.068Z,17.39
2022-12-17T08:08:08.240Z,17.39
2022-12-17T08:10:34.569Z,17.39
2022-12-17T08:13:00.918Z,17.40
2022-12-17T08:15:27.116Z,17.42
2022-12-17T08:17:53.350Z,17.44
2022-12-17T08:20:19.812Z,17.46
2022-12-17T08:22:46.045Z,17.47
2022-12-17T08:25:12.225Z,17.50
2022-12-17T08:27:38.472Z,17.54
2022-12-17T08:30:04.846Z,17.56
2022-12-17T08:32:31.042Z,17.57
2022-12-17T08:34:57.254Z,17.56
2022-12-17T08:37:23.478Z,17.60
2022-12-17T08:39:49.695Z,17.62
2022-12-17T08:42:15.987Z,17.64
2022-12-17T08:44:42.210Z,17.64
2022-12-17T08:47:08.418Z,17.66
2022-12-17T08:49:34.639Z,17.65
2022-12-17T08:52:03.690Z,17.64
2022-12-17T08:54:29.922Z,17.68
2022-12-17T08:56:56.275Z,17.70
2022-12-17T08:59:23.421Z,17.74
2022-12-17T09:01:49.696Z,17.80
2022-12-17T09:04:16.037Z,17.87
2022-12-17T09:06:42.227Z,17.92
2022-12-17T09:09:08.436Z,17.97
2022-12-17T09:11:34.633Z,18.06
2022-12-17T09:14:00.871Z,18.13
2022-12-17T09:16:27.145Z,18.18
2022-12-17T09:18:53.466Z,18.21
2022-12-17T09:21:19.691Z,18.25
2022-12-17T09:23:45.929Z,18.31
2022-12-17T09:26:12.214Z,18.40
2022-12-17T09:28:38.673Z,18.45
2022-12-17T09:31:05.044Z,18.51
2022-12-17T09:33:31.255Z,18.58
2022-12-17T09:35:57.494Z,18.65
2022-12-17T09:38:23.817Z,18.70
2022-12-17T09:40:50.030Z,18.78
2022-12-17T09:43:16.312Z,18.86
2022-12-17T09:45:42.725Z,18.93
2022-12-17T09:48:08.983Z,18.97
2022-12-17T09:50:35.186Z,19.00
2022-12-17T09:53:01.406Z,19.07
2022-12-17T09:55:27.631Z,19.12
2022-12-17T09:57:54.013Z,19.16
2022-12-17T10:00:20.217Z,19.22
2022-12-17T10:02:46.574Z,19.26
2022-12-17T10:05:12.924Z,19.32
2022-12-17T10:07:39.185Z,19.38
2022-12-17T10:10:05.347Z,19.40
2022-12-17T10:12:31.587Z,19.36
2022-12-17T10:14:57.864Z,19.32
2022-12-17T10:17:24.181Z,19.27
2022-12-17T10:19:50.593Z,19.23
2022-12-17T10:22:16.816Z,19.18
2022-12-17T10:24:42.989Z,19.20
2022-12-17T10:27:09.187Z,19.23
2022-12-17T10:29:35.497Z,19.24
2022-12-17T10:32:01.728Z,19.22
2022-12-17T10:34:27.932Z,19.18
2022-12-17T10:36:54.215Z,19.15
2022-12-17T10:39:20.431Z,19.11
2022-12-17T10:41:46.734Z,19.08
2022-12-17T10:44:12.963Z,19.04
2022-12-17T10:46:39.212Z,19.02
2022-12-17T10:49:11.048Z,19.01
2022-12-17T10:51:37.680Z,18.98
2022-12-17T10:54:03.826Z,18.96
2022-12-17T10:56:30.063Z,18.94
2022-12-17T10:58:56.261Z,18.91
2022-12-17T11:01:22.622Z,18.89
2022-12-17T11:03:49.020Z,18.87
2022-12-17T11:06:15.441Z,18.85
2022-12-17T11:08:41.675Z,18.84
2022-12-17T11:11:08.918Z,18.82
2022-12-17T11:13:35.527Z,18.81
2022-12-17T11:16:03.315Z,18.78
2022-12-17T11:18:29.521Z,18.77
2022-12-17T11:20:55.742Z,18.77
2022-12-17T11:23:21.919Z,18.75
2022-12-17T11:25:48.091Z,18.74
2022-12-17T11:28:14.305Z,18.72
2022-12-17T11:30:40.555Z,18.71
2022-12-17T11:33:06.812Z,18.69
2022-12-17T11:35:32.986Z,18.69
2022-12-17T11:37:59.167Z,18.67
2022-12-17T11:40:25.374Z,18.53
2022-12-17T11:42:51.560Z,18.63
2022-12-17T11:45:17.770Z,18.61
2022-12-17T11:47:44.007Z,18.61
2022-12-17T11:50:10.191Z,18.61
2022-12-17T11:52:36.414Z,18.56
2022-12-17T11:55:02.642Z,18.58
2022-12-17T11:57:28.884Z,18.57
2022-12-17T11:59:59.447Z,18.55
2022-12-17T12:02:28.584Z,18.53
2022-12-17T12:04:54.884Z,18.52
2022-12-17T12:07:21.092Z,18.50
2022-12-17T12:09:47.478Z,18.48
2022-12-17T12:12:13.712Z,18.48
2022-12-17T12:14:39.927Z,18.46
2022-12-17T12:17:06.176Z,18.45
2022-12-17T12:19:32.366Z,18.46
2022-12-17T12:21:58.547Z,18.45
2022-12-17T12:24:24.754Z,18.55
2022-12-17T12:26:51.133Z,18.74
2022-12-17T12:29:17.365Z,19.29
2022-12-17T12:31:44.669Z,18.80
2022-12-17T12:34:11.003Z,18.62
2022-12-17T12:36:37.266Z,18.53
2022-12-17T12:39:03.450Z,18.49
2022-12-17T12:44:13.495Z,18.43
2022-12-17T12:46:39.947Z,18.41
2022-12-17T12:49:06.187Z,18.40
2022-12-17T12:51:34.367Z,18.39
2022-12-17T12:54:00.734Z,18.35
2022-12-17T12:56:26.934Z,18.35
2022-12-17T12:58:53.220Z,18.37
2022-12-17T13:01:19.555Z,18.38
2022-12-17T13:03:45.914Z,18.66
2022-12-17T13:06:12.120Z,19.56
2022-12-17T13:08:38.713Z,20.83
2022-12-17T13:11:05.194Z,21.63
2022-12-17T13:13:31.444Z,22.46
2022-12-17T13:15:57.668Z,23.53
2022-12-17T13:18:24.022Z,24.14
2022-12-17T13:20:50.201Z,24.52
2022-12-17T13:23:16.369Z,24.40
2022-12-17T13:25:42.658Z,23.43
2022-12-17T13:28:08.862Z,21.98
2022-12-17T13:30:35.052Z,21.33
2022-12-17T13:33:01.241Z,21.51
2022-12-17T13:35:27.500Z,22.73
2022-12-17T13:37:53.799Z,23.73
2022-12-17T13:40:19.982Z,23.75
2022-12-17T13:42:46.270Z,23.20
2022-12-17T13:45:12.482Z,22.29
2022-12-17T13:47:38.680Z,21.79
2022-12-17T13:50:32.609Z,21.36
2022-12-17T13:52:51.343Z,20.67
2022-12-17T13:55:17.556Z,20.30
2022-12-17T13:57:43.850Z,20.07
2022-12-17T14:00:10.053Z,19.91
2022-12-17T14:02:36.447Z,19.76
2022-12-17T14:05:07.440Z,19.62
2022-12-17T14:07:34.182Z,19.47
2022-12-17T14:10:00.431Z,19.33
2022-12-17T14:12:26.632Z,19.18
2022-12-17T14:14:52.837Z,19.06
2022-12-17T14:17:20.157Z,18.93
2022-12-17T14:19:46.437Z,18.81
2022-12-17T14:22:12.612Z,18.70
2022-12-17T14:24:38.826Z,18.59
2022-12-17T14:27:04.993Z,18.49
2022-12-17T14:29:31.320Z,18.40
2022-12-17T14:31:57.560Z,18.33
2022-12-17T14:34:23.948Z,18.26
2022-12-17T14:36:50.254Z,18.16
2022-12-17T14:39:16.469Z,18.08
2022-12-17T14:41:42.662Z,18.03
2022-12-17T14:44:08.892Z,17.96
2022-12-17T14:46:35.058Z,17.89
2022-12-17T14:49:01.504Z,17.83
2022-12-17T14:51:27.684Z,17.78
2022-12-17T14:53:53.853Z,17.73
2022-12-17T14:56:20.039Z,17.67
2022-12-17T14:58:46.291Z,17.61
2022-12-17T15:01:12.575Z,17.56
2022-12-17T15:03:38.841Z,17.53
2022-12-17T15:06:05.064Z,17.52
2022-12-17T15:08:31.300Z,17.58
2022-12-17T15:10:57.498Z,17.69
2022-12-17T15:13:23.681Z,17.79
2022-12-17T15:15:51.788Z,17.90
2022-12-17T15:18:17.967Z,18.02
2022-12-17T15:20:44.149Z,18.12
2022-12-17T15:23:10.334Z,18.23
2022-12-17T15:25:41.629Z,18.35
2022-12-17T15:28:10.727Z,18.44
2022-12-17T15:30:37.153Z,18.50
2022-12-17T15:33:03.435Z,18.57
2022-12-17T15:35:29.637Z,18.64
2022-12-17T15:37:55.869Z,18.67
2022-12-17T15:40:22.164Z,18.70
2022-12-17T15:42:48.342Z,18.67
2022-12-17T15:45:14.522Z,18.63
2022-12-17T15:47:40.755Z,18.60
2022-12-17T15:50:06.969Z,18.53
2022-12-17T15:52:33.272Z,18.45
2022-12-17T15:54:59.471Z,18.36
2022-12-17T15:57:25.726Z,18.24
2022-12-17T15:59:51.890Z,18.12
2022-12-17T16:02:18.242Z,18.01
2022-12-17T16:04:44.518Z,17.90
2022-12-17T16:07:10.763Z,17.83
2022-12-17T16:09:37.058Z,17.78
2022-12-17T16:12:03.340Z,17.73
2022-12-17T16:14:29.550Z,17.67
2022-12-17T16:16:55.800Z,17.60
2022-12-17T16:19:21.984Z,17.53
2022-12-17T16:21:48.229Z,17.43
2022-12-17T16:24:14.552Z,17.34
2022-12-17T16:26:40.787Z,17.27
2022-12-17T16:29:07.073Z,17.24
2022-12-17T16:31:33.387Z,17.26
2022-12-17T16:33:59.635Z,17.29
2022-12-17T16:36:25.879Z,17.30
2022-12-17T16:38:52.314Z,17.38
2022-12-17T16:41:18.508Z,17.45
2022-12-17T16:43:44.890Z,17.56
2022-12-17T16:46:12.423Z,17.65
2022-12-17T16:48:39.366Z,17.74
2022-12-17T16:51:07.931Z,17.80
2022-12-17T16:53:34.263Z,17.87
2022-12-17T16:56:00.488Z,17.95
2022-12-17T16:58:26.757Z,18.02
2022-12-17T17:00:53.038Z,18.08
2022-12-17T17:03:19.491Z,18.14
2022-12-17T17:05:45.829Z,18.17
2022-12-17T17:08:12.166Z,18.24
2022-12-17T17:10:38.379Z,18.30
2022-12-17T17:13:04.578Z,18.34
2022-12-17T17:15:30.765Z,18.40
2022-12-17T17:18:01.406Z,18.45
2022-12-17T17:20:28.294Z,18.50
2022-12-17T17:22:54.803Z,18.53
2022-12-17T17:25:21.035Z,18.57
2022-12-17T17:27:47.279Z,18.53
2022-12-17T17:30:13.548Z,18.50
2022-12-17T17:32:39.902Z,18.43
2022-12-17T17:35:06.227Z,18.36
2022-12-17T17:37:32.474Z,18.28
2022-12-17T17:39:58.673Z,18.19
2022-12-17T17:42:24.960Z,18.07
2022-12-17T17:44:51.169Z,17.92
2022-12-17T17:47:17.459Z,17.81
2022-12-17T17:49:43.639Z,17.70
2022-12-17T17:52:10.863Z,17.61
2022-12-17T17:54:37.312Z,17.50
2022-12-17T17:57:03.539Z,17.45
2022-12-17T17:59:33.671Z,17.37
2022-12-17T18:02:00.612Z,17.30
2022-12-17T18:04:27.215Z,17.23
2022-12-17T18:07:23.669Z,17.14
2022-12-17T18:09:39.659Z,17.05
2022-12-17T18:12:05.836Z,17.00
2022-12-17T18:14:37.508Z,16.95
2022-12-17T18:17:08.064Z,17.01
2022-12-17T18:19:34.288Z,17.13
2022-12-17T18:22:00.587Z,17.26
2022-12-17T18:24:26.821Z,17.42
2022-12-17T18:26:53.070Z,17.56
2022-12-17T18:29:19.364Z,17.68
2022-12-17T18:31:51.379Z,17.80
2022-12-17T18:34:18.089Z,17.88
2022-12-17T18:36:44.438Z,17.94
2022-12-17T18:39:10.624Z,18.02
2022-12-17T18:41:36.866Z,18.08
2022-12-17T18:44:03.061Z,18.10
2022-12-17T18:46:29.376Z,18.12
2022-12-17T18:48:55.564Z,18.15
2022-12-17T18:51:21.828Z,18.17
2022-12-17T18:53:48.065Z,18.21
2022-12-17T18:56:22.906Z,18.22
2022-12-17T18:58:58.042Z,18.22
2022-12-17T19:01:24.408Z,18.20
2022-12-17T19:03:50.749Z,18.16
2022-12-17T19:06:16.937Z,18.12
2022-12-17T19:08:43.163Z,18.05
2022-12-17T19:11:09.339Z,17.98
2022-12-17T19:13:35.533Z,17.87
2022-12-17T19:16:01.820Z,17.74
2022-12-17T19:18:28.023Z,17.66
2022-12-17T19:20:54.194Z,17.56
2022-12-17T19:23:20.407Z,17.47
2022-12-17T19:25:46.678Z,17.41
2022-12-17T19:28:12.872Z,17.37
2022-12-17T19:30:39.038Z,17.32
2022-12-17T19:33:05.319Z,17.25
2022-12-17T19:35:31.707Z,17.17
2022-12-17T19:37:57.936Z,17.07
2022-12-17T19:40:24.136Z,16.99
2022-12-17T19:42:50.342Z,16.89
2022-12-17T19:45:16.535Z,16.84
2022-12-17T19:47:42.699Z,16.76
2022-12-17T19:50:08.893Z,16.78
2022-12-17T19:52:35.062Z,16.85
2022-12-17T19:55:01.260Z,16.92
2022-12-17T19:57:27.469Z,17.02
2022-12-17T19:59:53.778Z,17.15
2022-12-17T20:02:20.140Z,17.26
2022-12-17T20:04:46.580Z,17.36
2022-12-17T20:07:12.762Z,17.43
2022-12-17T20:09:38.992Z,17.54
2022-12-17T20:12:05.343Z,17.62
2022-12-17T20:14:31.716Z,17.70
2022-12-17T20:16:58.449Z,17.77
2022-12-17T20:19:24.715Z,17.83
2022-12-17T20:21:50.892Z,17.87
2022-12-17T20:24:17.091Z,17.87
2022-12-17T20:26:43.375Z,17.86
2022-12-17T20:29:09.621Z,17.89
2022-12-17T20:31:35.905Z,17.94
2022-12-17T20:34:02.163Z,18.02
2022-12-17T20:36:28.389Z,18.07
2022-12-17T20:38:54.597Z,18.12
2022-12-17T20:41:20.803Z,18.19
2022-12-17T20:43:47.028Z,18.19
2022-12-17T20:46:13.426Z,18.25
2022-12-17T20:48:40.103Z,18.29
2022-12-17T20:51:06.621Z,18.32
2022-12-17T20:53:36.637Z,18.36
2022-12-17T20:56:03.806Z,18.36
2022-12-17T20:58:30.066Z,18.38
2022-12-17T21:01:00.041Z,18.37
2022-12-17T21:03:28.768Z,18.37
2022-12-17T21:05:55.551Z,18.38
2022-12-17T21:08:21.905Z,18.41
2022-12-17T21:10:55.228Z,18.46
2022-12-17T21:13:25.203Z,18.51
2022-12-17T21:15:54.179Z,18.57
2022-12-17T21:18:20.476Z,18.57
2022-12-17T21:20:48.587Z,18.59
2022-12-17T21:23:14.783Z,18.58
2022-12-17T21:25:40.989Z,18.61
2022-12-17T21:28:07.346Z,18.60
2022-12-17T21:30:34.977Z,18.58
2022-12-17T21:33:01.237Z,18.58
2022-12-17T21:35:27.645Z,18.58
2022-12-17T21:37:54.020Z,18.60
2022-12-17T21:40:20.252Z,18.63
2022-12-17T21:42:46.758Z,18.67
2022-12-17T21:45:13.722Z,18.71
2022-12-17T21:47:40.913Z,18.77
2022-12-17T21:50:07.272Z,18.82
2022-12-17T21:52:33.599Z,18.82
2022-12-17T21:54:59.984Z,18.82
2022-12-17T21:57:26.283Z,18.83
2022-12-17T21:59:52.669Z,18.83
2022-12-17T22:02:19.710Z,18.81
2022-12-17T22:04:46.196Z,18.82
2022-12-17T22:07:14.955Z,18.82
2022-12-17T22:09:52.383Z,18.80
2022-12-17T22:12:29.737Z,18.81
2022-12-17T22:14:56.185Z,18.85
2022-12-17T22:17:23.092Z,18.91
2022-12-17T22:19:50.034Z,18.96
2022-12-17T22:22:16.313Z,18.94
2022-12-17T22:24:42.631Z,18.95
2022-12-17T22:27:09.770Z,18.95
2022-12-17T22:29:36.321Z,19.00
2022-12-17T22:32:02.775Z,19.03
2022-12-17T22:36:11.359Z,19.05
2022-12-17T22:40:34.309Z,19.02
2022-12-17T22:44:30.452Z,18.96
2022-12-17T22:44:46.298Z,18.89
2022-12-17T22:45:35.017Z,18.77
2022-12-17T22:48:01.232Z,18.66
2022-12-17T22:50:27.906Z,18.53
2022-12-17T22:52:59.788Z,18.40
2022-12-17T22:55:26.416Z,18.23
2022-12-17T22:57:53.811Z,18.03
2022-12-17T23:00:22.139Z,17.80
2022-12-17T23:02:50.659Z,17.59
2022-12-17T23:05:17.001Z,17.40
2022-12-17T23:07:43.681Z,17.19
2022-12-17T23:10:12.214Z,16.99
2022-12-17T23:12:40.236Z,16.78
2022-12-17T23:15:07.418Z,16.59
2022-12-17T23:17:35.601Z,16.41
2022-12-17T23:20:03.897Z,16.21
2022-12-17T23:22:31.126Z,16.04
2022-12-17T23:24:58.933Z,15.86
2022-12-17T23:27:25.711Z,15.69
2022-12-17T23:29:53.328Z,15.52
2022-12-17T23:32:20.937Z,15.37
2022-12-17T23:34:49.053Z,15.20
2022-12-17T23:37:16.280Z,15.05
2022-12-17T23:39:43.760Z,14.89
2022-12-17T23:42:11.926Z,14.73
2022-12-17T23:44:38.964Z,14.58
2022-12-17T23:47:07.935Z,14.43
2022-12-17T23:49:36.015Z,14.26
2022-12-17T23:52:04.305Z,14.13
2022-12-17T23:54:34.647Z,13.98
2022-12-17T23:57:03.223Z,13.84
2022-12-17T23:59:30.539Z,13.70
